Terminal Aerodrome Forecast
Issued by NWS Austin/San Antonio, TX

Home | Current Version | Previous Version | Text Only | Print | Product List | Glossary On
Versions: 1 2 3 4 5 6 7 8 9 10 11 12 13 14 15 16 17 18
000
FTUS44 KEWX 200500
TAFAUS
TAF
KAUS 200521Z 2006/2112 16015KT P6SM BKN150 OVC250
     FM200900 17008KT P6SM BKN012
     FM201500 17012KT P6SM BKN020
     FM201600 17012G22KT P6SM SCT040
     FM210100 16015KT P6SM SCT070
     FM210900 17008KT P6SM BKN012=

USA.gov is the U.S. government's official web portal to all federal, state and local government web resources and services.